createdAt,value
2023-05-13T00:02:25.949Z,99845.38
2023-05-13T00:04:52.964Z,99850.28
2023-05-13T00:07:19.900Z,99851.53
2023-05-13T00:09:46.837Z,99852.75
2023-05-13T00:12:13.996Z,99857.44
2023-05-13T00:14:40.942Z,99850.66
2023-05-13T00:17:07.863Z,99858.25
2023-05-13T00:19:34.839Z,99850.63
2023-05-13T00:22:01.882Z,99855.34
2023-05-13T00:24:28.856Z,99853.06
2023-05-13T00:26:55.825Z,99856.75
2023-05-13T00:29:22.802Z,99854.28
2023-05-13T00:31:49.803Z,99846.47
2023-05-13T00:34:18.445Z,99853.00
2023-05-13T00:36:45.648Z,99854.25
2023-05-13T00:39:13.299Z,99849.28
2023-05-13T00:41:40.431Z,99848.03
2023-05-13T00:44:07.346Z,99858.28
2023-05-13T00:46:34.449Z,99853.53
2023-05-13T00:49:04.272Z,99851.22
2023-05-13T00:51:32.620Z,99850.59
2023-05-13T00:53:59.876Z,99842.97
2023-05-13T00:56:27.129Z,99847.69
2023-05-13T00:58:54.141Z,99842.75
2023-05-13T01:01:37.306Z,99851.13
2023-05-13T01:04:26.063Z,99846.19
2023-05-13T01:07:17.157Z,99850.25
2023-05-13T01:09:57.069Z,99843.28
2023-05-13T01:12:39.651Z,99844.66
2023-05-13T01:15:10.162Z,99846.72
2023-05-13T01:17:46.466Z,99845.06
2023-05-13T01:20:14.305Z,99838.25
2023-05-13T01:22:41.711Z,99844.81
2023-05-13T01:29:40.956Z,99849.28
2023-05-13T01:32:10.613Z,99846.78
2023-05-13T01:34:40.698Z,99842.66
2023-05-13T01:37:08.195Z,99854.34
2023-05-13T01:39:38.260Z,99852.06
2023-05-13T01:42:09.193Z,99847.91
2023-05-13T01:44:36.303Z,99851.78
2023-05-13T01:47:03.316Z,99848.66
2023-05-13T01:49:30.653Z,99858.69
2023-05-13T01:51:57.830Z,99855.59
2023-05-13T01:54:25.824Z,99856.78
2023-05-13T01:56:57.867Z,99847.34
2023-05-13T01:59:24.832Z,99853.03
2023-05-13T02:01:51.869Z,99851.78
2023-05-13T02:04:18.818Z,99846.81
2023-05-13T02:06:46.763Z,99856.03
2023-05-13T02:09:14.789Z,99847.56
2023-05-13T02:11:41.817Z,99845.09
2023-05-13T02:14:08.844Z,99848.97
2023-05-13T02:16:35.868Z,99846.66
2023-05-13T02:19:06.458Z,99848.91
2023-05-13T02:21:33.760Z,99854.44
2023-05-13T02:24:00.908Z,99854.78
2023-05-13T02:26:29.178Z,99848.00
2023-05-13T02:28:56.133Z,99856.19
2023-05-13T02:31:23.213Z,99860.06
2023-05-13T02:33:50.181Z,99858.59
2023-05-13T02:36:17.516Z,99861.47
2023-05-13T02:38:44.993Z,99862.44
2023-05-13T02:41:14.134Z,99861.63
2023-05-13T02:43:42.448Z,99857.50
2023-05-13T02:46:09.456Z,99862.00
2023-05-13T02:48:36.465Z,99860.53
2023-05-13T02:51:03.473Z,99857.03
2023-05-13T02:53:30.724Z,99853.75
2023-05-13T02:56:02.493Z,99856.41
2023-05-13T02:58:29.467Z,99855.78
2023-05-13T03:00:56.619Z,99848.78
2023-05-13T03:03:25.103Z,99853.31
2023-05-13T03:05:52.230Z,99854.28
2023-05-13T03:08:19.314Z,99849.16
2023-05-13T03:10:46.275Z,99852.84
2023-05-13T03:13:13.339Z,99856.50
2023-05-13T03:15:42.117Z,99860.19
2023-05-13T03:18:10.579Z,99855.88
2023-05-13T03:20:37.619Z,99856.88
2023-05-13T03:23:04.983Z,99855.22
2023-05-13T03:25:33.102Z,99863.41
2023-05-13T03:28:00.151Z,99853.97
2023-05-13T03:30:31.025Z,99857.63
2023-05-13T03:33:11.565Z,99863.31
2023-05-13T03:35:38.766Z,99860.84
2023-05-13T03:38:05.886Z,99850.53
2023-05-13T03:40:36.022Z,99857.09
2023-05-13T03:43:03.155Z,99864.25
2023-05-13T03:45:31.223Z,99869.38
2023-05-13T03:48:02.884Z,99873.06
2023-05-13T03:50:29.911Z,99871.41
2023-05-13T03:52:56.910Z,99875.09
2023-05-13T03:55:24.276Z,99878.59
2023-05-13T03:57:51.252Z,99870.59
2023-05-13T04:00:21.134Z,99880.44
2023-05-13T04:02:49.271Z,99880.44
2023-05-13T04:05:17.623Z,99877.75
2023-05-13T04:07:46.400Z,99884.75
2023-05-13T04:10:15.406Z,99889.06
2023-05-13T04:12:42.689Z,99892.34
2023-05-13T04:15:10.244Z,99888.69
2023-05-13T04:17:37.210Z,99895.69
2023-05-13T04:20:04.693Z,99889.34
2023-05-13T04:22:31.760Z,99892.63
2023-05-13T04:24:58.687Z,99891.63
2023-05-13T04:27:25.772Z,99897.63
2023-05-13T04:30:06.708Z,99901.09
2023-05-13T04:32:35.175Z,99891.06
2023-05-13T04:35:02.726Z,99892.53
2023-05-13T04:37:31.728Z,99886.03
2023-05-13T04:40:02.837Z,99890.97
2023-05-13T04:42:29.866Z,99904.78
2023-05-13T04:44:56.979Z,99903.38
2023-05-13T04:47:24.038Z,99906.69
2023-05-13T04:49:51.006Z,99906.31
2023-05-13T04:52:19.454Z,99901.44
2023-05-13T04:54:46.385Z,99908.88
2023-05-13T04:57:13.456Z,99910.34
2023-05-13T04:59:40.540Z,99915.09
2023-05-13T05:02:08.703Z,99904.91
2023-05-13T05:04:35.768Z,99906.16
2023-05-13T05:07:06.869Z,99911.78
2023-05-13T05:09:34.051Z,99911.22
2023-05-13T05:12:01.050Z,99919.50
2023-05-13T05:14:31.732Z,99921.56
2023-05-13T05:16:59.354Z,99933.34
2023-05-13T05:19:26.482Z,99928.28
2023-05-13T05:21:54.942Z,99932.88
2023-05-13T05:24:21.901Z,99935.81
2023-05-13T05:26:48.953Z,99927.88
2023-05-13T05:29:17.892Z,99937.81
2023-05-13T05:31:45.388Z,99933.38
2023-05-13T05:34:12.421Z,99933.22
2023-05-13T05:36:39.566Z,99946.44
2023-05-13T05:39:06.857Z,99940.97
2023-05-13T05:41:36.496Z,99951.50
2023-05-13T05:44:03.493Z,99950.38
2023-05-13T05:46:31.731Z,99942.22
2023-05-13T05:48:59.849Z,99938.56
2023-05-13T05:51:26.814Z,99937.41
2023-05-13T05:53:54.200Z,99941.78
2023-05-13T05:56:21.698Z,99945.13
2023-05-13T05:58:48.703Z,99951.13
2023-05-13T06:01:16.792Z,99950.78
2023-05-13T06:03:45.749Z,99952.47
2023-05-13T06:06:12.936Z,99959.50
2023-05-13T06:08:40.233Z,99958.31
2023-05-13T06:11:08.205Z,99959.16
2023-05-13T06:13:35.273Z,99949.19
2023-05-13T06:16:02.308Z,99953.53
2023-05-13T06:18:29.379Z,99954.78
2023-05-13T06:20:56.378Z,99952.31
2023-05-13T06:23:23.348Z,99955.22
2023-05-13T06:25:51.864Z,99956.50
2023-05-13T06:28:18.944Z,99959.19
2023-05-13T06:30:46.016Z,99960.41
2023-05-13T06:33:13.174Z,99955.28
2023-05-13T06:35:40.213Z,99962.53
2023-05-13T06:38:08.611Z,99961.72
2023-05-13T06:40:36.106Z,99963.38
2023-05-13T06:43:03.401Z,99960.72
2023-05-13T06:45:32.104Z,99964.00
2023-05-13T06:47:59.545Z,99968.16
2023-05-13T06:50:26.672Z,99963.22
2023-05-13T06:52:53.630Z,99970.22
2023-05-13T06:55:21.579Z,99967.75
2023-05-13T06:57:48.561Z,99959.50
2023-05-13T07:00:16.412Z,99961.78
2023-05-13T07:02:43.406Z,99961.78
2023-05-13T07:05:12.318Z,99961.56
2023-05-13T07:07:39.299Z,99974.16
2023-05-13T07:10:06.575Z,99981.97
2023-05-13T07:12:33.592Z,99978.66
2023-05-13T07:15:00.592Z,99976.38
2023-05-13T07:17:27.597Z,99984.63
2023-05-13T07:19:54.731Z,99972.44
2023-05-13T07:22:21.705Z,99978.00
2023-05-13T07:24:48.827Z,99982.31
2023-05-13T07:27:15.781Z,99981.28
2023-05-13T07:29:42.867Z,99980.00
2023-05-13T07:32:09.795Z,99970.03
2023-05-13T07:34:37.219Z,99984.44
2023-05-13T07:37:04.694Z,99976.75
2023-05-13T07:39:31.616Z,99968.47
2023-05-13T07:41:58.688Z,99974.84
2023-05-13T07:44:25.991Z,99978.50
2023-05-13T07:46:53.650Z,99981.63
2023-05-13T07:49:21.678Z,99985.31
2023-05-13T07:51:48.788Z,99991.91
2023-05-13T07:54:15.792Z,99990.44
2023-05-13T07:56:44.201Z,99980.06
2023-05-13T07:59:11.232Z,99983.75
2023-05-13T08:01:38.302Z,99989.91
2023-05-13T08:04:05.517Z,99988.22
2023-05-13T08:06:33.022Z,99983.25
2023-05-13T08:09:01.269Z,99982.38
2023-05-13T08:11:29.252Z,99981.50
2023-05-13T08:13:56.198Z,99977.94
2023-05-13T08:16:23.269Z,99976.00
2023-05-13T08:18:50.251Z,99973.84
2023-05-13T08:21:17.214Z,99968.19
2023-05-13T08:23:45.872Z,99975.78
2023-05-13T08:26:13.749Z,99970.69
2023-05-13T08:28:42.327Z,99971.22
2023-05-13T08:31:14.727Z,99964.75
2023-05-13T08:33:42.594Z,99974.19
2023-05-13T08:36:09.808Z,99974.47
2023-05-13T08:38:36.734Z,99978.75
2023-05-13T08:41:07.725Z,99966.84
2023-05-13T08:43:38.016Z,99980.44
2023-05-13T08:46:11.936Z,99974.97
2023-05-13T08:48:40.930Z,99976.75
2023-05-13T08:51:09.360Z,99983.69
2023-05-13T08:53:39.037Z,99971.19
2023-05-13T08:56:08.121Z,99966.19
2023-05-13T08:58:35.196Z,99977.44
2023-05-13T09:01:04.041Z,99973.84
2023-05-13T09:03:32.387Z,99975.38
2023-05-13T09:06:02.872Z,99982.13
2023-05-13T09:08:30.203Z,99984.03
2023-05-13T09:10:57.746Z,99988.88
2023-05-13T09:13:24.718Z,99977.06
2023-05-13T09:15:51.874Z,99978.50
2023-05-13T09:18:19.483Z,99981.78
2023-05-13T09:20:46.826Z,99982.38
2023-05-13T09:23:15.800Z,99974.34
2023-05-13T09:25:43.505Z,99976.84
2023-05-13T09:28:15.087Z,99975.06
2023-05-13T09:30:45.676Z,99972.34
2023-05-13T09:33:16.498Z,99981.00
2023-05-13T09:35:53.621Z,99969.09
2023-05-13T09:38:38.405Z,99972.78
2023-05-13T09:41:05.775Z,99965.69
2023-05-13T09:43:33.816Z,99960.78
2023-05-13T09:46:05.354Z,99966.91
2023-05-13T09:48:34.291Z,99973.22
2023-05-13T09:51:01.394Z,99971.44
2023-05-13T09:53:29.060Z,99973.72
2023-05-13T09:55:58.640Z,99969.81
2023-05-13T09:58:30.712Z,99967.75
2023-05-13T10:00:58.082Z,99962.97
2023-05-13T10:03:25.600Z,99968.56
2023-05-13T10:05:59.843Z,99961.16
2023-05-13T10:08:29.287Z,99967.81
2023-05-13T10:10:56.895Z,99966.31
2023-05-13T10:13:25.387Z,99965.66
2023-05-13T10:15:54.781Z,99958.44
2023-05-13T10:18:26.170Z,99967.56
2023-05-13T10:20:54.076Z,99956.84
2023-05-13T10:23:23.731Z,99961.03
2023-05-13T10:25:52.990Z,99963.84
2023-05-13T10:28:20.718Z,99961.31
2023-05-13T10:30:51.356Z,99957.63
2023-05-13T10:33:18.872Z,99951.63
2023-05-13T10:36:11.742Z,99949.84
2023-05-13T10:39:16.512Z,99953.34
2023-05-13T10:42:08.124Z,99945.94
2023-05-13T10:44:36.110Z,99954.81
2023-05-13T10:47:03.304Z,99947.06
2023-05-13T10:49:34.899Z,99954.47
2023-05-13T10:52:06.106Z,99952.41
2023-05-13T10:54:41.948Z,99960.09
2023-05-13T10:57:09.614Z,99955.22
2023-05-13T10:59:38.601Z,99957.38
2023-05-13T11:02:25.148Z,99951.16
2023-05-13T11:05:00.428Z,99951.69
2023-05-13T11:07:30.654Z,99949.78
2023-05-13T11:09:59.344Z,99951.41
2023-05-13T11:12:26.271Z,99940.56
2023-05-13T11:14:56.271Z,99938.63
2023-05-13T11:17:23.370Z,99941.94
2023-05-13T11:19:52.280Z,99945.47
2023-05-13T11:22:27.628Z,99945.19
2023-05-13T11:25:10.633Z,99949.81
2023-05-13T11:27:42.853Z,99941.63
2023-05-13T11:30:25.842Z,99937.25
2023-05-13T11:32:56.495Z,99946.50
2023-05-13T11:35:28.497Z,99931.81
2023-05-13T11:37:59.683Z,99929.59
2023-05-13T11:40:35.317Z,99927.41
2023-05-13T11:43:04.841Z,99929.03
2023-05-13T11:45:33.276Z,99928.53
2023-05-13T11:48:22.139Z,99921.50
2023-05-13T11:50:51.907Z,99926.16
2023-05-13T11:53:22.972Z,99922.25
2023-05-13T11:55:50.125Z,99918.56
2023-05-13T11:58:17.358Z,99913.91
2023-05-13T12:00:46.517Z,99909.28
2023-05-13T12:03:16.005Z,99906.59
2023-05-13T12:05:44.350Z,99921.56
2023-05-13T12:08:11.826Z,99914.22
2023-05-13T12:10:45.004Z,99907.59
2023-05-13T12:13:12.427Z,99922.38
2023-05-13T12:15:39.901Z,99916.34
2023-05-13T12:18:08.094Z,99904.16
2023-05-13T12:20:35.512Z,99907.34
2023-05-13T12:23:02.807Z,99924.69
2023-05-13T12:25:46.610Z,99918.91
2023-05-13T12:28:23.306Z,99929.50
2023-05-13T12:31:01.261Z,99931.59
2023-05-13T12:33:40.580Z,99926.00
2023-05-13T12:36:31.997Z,99918.78
2023-05-13T12:39:10.166Z,99922.41
2023-05-13T12:41:54.523Z,99922.13
2023-05-13T12:44:21.618Z,99921.22
2023-05-13T12:46:54.145Z,99921.84
2023-05-13T12:49:22.234Z,99910.41
2023-05-13T12:51:51.591Z,99911.81
2023-05-13T12:54:18.985Z,99917.25
2023-05-13T12:56:46.089Z,99915.47
2023-05-13T12:59:14.321Z,99915.81
2023-05-13T13:01:42.771Z,99903.63
2023-05-13T13:04:10.210Z,99909.22
2023-05-13T13:06:37.390Z,99910.00
2023-05-13T13:09:05.205Z,99914.91
2023-05-13T13:11:32.134Z,99908.09
2023-05-13T13:13:59.085Z,99902.50
2023-05-13T13:16:26.111Z,99915.53
2023-05-13T13:18:55.790Z,99908.03
2023-05-13T13:21:23.093Z,99910.97
2023-05-13T13:23:50.037Z,99900.59
2023-05-13T13:26:17.008Z,99902.72
2023-05-13T13:28:43.994Z,99908.22
2023-05-13T13:31:12.014Z,99907.78
2023-05-13T13:33:38.960Z,99909.03
2023-05-13T13:36:06.275Z,99905.94
2023-05-13T13:38:33.268Z,99902.00
2023-05-13T13:41:00.193Z,99895.13
2023-05-13T13:43:27.822Z,99914.53
2023-05-13T13:45:54.760Z,99900.72
2023-05-13T13:48:21.781Z,99892.47
2023-05-13T13:50:49.896Z,99899.22
2023-05-13T13:53:18.480Z,99901.13
2023-05-13T13:55:45.691Z,99898.28
2023-05-13T13:58:12.717Z,99901.44
2023-05-13T14:00:39.725Z,99906.09
2023-05-13T14:03:06.702Z,99901.56
2023-05-13T14:05:33.731Z,99897.34
2023-05-13T14:08:00.761Z,99893.16
2023-05-13T14:10:27.778Z,99886.09
2023-05-13T14:12:54.715Z,99885.28
2023-05-13T14:15:21.623Z,99885.72
2023-05-13T14:17:48.618Z,99881.00
2023-05-13T14:20:15.967Z,99871.69
2023-05-13T14:22:42.969Z,99879.81
2023-05-13T14:25:10.143Z,99878.28
2023-05-13T14:27:37.188Z,99883.31
2023-05-13T14:30:07.129Z,99888.16
2023-05-13T14:32:34.693Z,99876.56
2023-05-13T14:35:01.660Z,99864.94
2023-05-13T14:37:28.635Z,99872.44
2023-05-13T14:39:56.252Z,99873.38
2023-05-13T14:42:23.175Z,99869.47
2023-05-13T14:44:50.275Z,99872.59
2023-05-13T14:47:17.478Z,99867.50
2023-05-13T14:49:44.430Z,99864.19
2023-05-13T14:52:11.380Z,99859.31
2023-05-13T14:54:38.321Z,99854.88
2023-05-13T14:57:07.109Z,99857.78
2023-05-13T14:59:34.606Z,99842.19
2023-05-13T15:02:03.297Z,99858.13
2023-05-13T15:04:30.539Z,99849.28
2023-05-13T15:06:58.179Z,99853.13
2023-05-13T15:09:25.228Z,99852.72
2023-05-13T15:11:52.256Z,99861.19
2023-05-13T15:14:20.932Z,99855.03
2023-05-13T15:16:47.902Z,99861.03
2023-05-13T15:19:14.987Z,99867.13
2023-05-13T15:21:42.124Z,99852.88
2023-05-13T15:24:09.097Z,99854.56
2023-05-13T15:26:36.156Z,99852.44
2023-05-13T15:29:03.285Z,99855.25
2023-05-13T15:31:31.677Z,99853.38
2023-05-13T15:33:59.444Z,99839.34
2023-05-13T15:36:26.451Z,99834.84
2023-05-13T15:38:53.379Z,99839.34
2023-05-13T15:41:20.295Z,99836.47
2023-05-13T15:43:47.261Z,99833.03
2023-05-13T15:46:14.359Z,99832.84
2023-05-13T15:48:41.516Z,99845.91
2023-05-13T15:51:08.462Z,99820.81
2023-05-13T15:53:35.479Z,99835.13
2023-05-13T15:56:02.455Z,99832.00
2023-05-13T15:58:29.381Z,99836.03
2023-05-13T16:00:56.302Z,99827.66
2023-05-13T16:03:23.282Z,99828.34
2023-05-13T16:05:51.154Z,99822.78
2023-05-13T16:08:18.595Z,99825.91
2023-05-13T16:10:45.645Z,99822.53
2023-05-13T16:13:12.618Z,99825.63
2023-05-13T16:15:39.574Z,99815.75
2023-05-13T16:18:07.038Z,99814.75
2023-05-13T16:20:34.035Z,99820.97
2023-05-13T16:23:00.959Z,99816.28
2023-05-13T16:25:27.911Z,99825.09
2023-05-13T16:27:56.511Z,99821.75
2023-05-13T16:30:23.910Z,99819.44
2023-05-13T16:32:54.367Z,99826.28
2023-05-13T16:35:22.420Z,99824.00
2023-05-13T16:37:50.555Z,99832.78
2023-05-13T16:40:17.553Z,99819.16
2023-05-13T16:42:46.231Z,99820.84
2023-05-13T16:45:13.264Z,99822.41
2023-05-13T16:47:40.285Z,99826.75
2023-05-13T16:50:08.519Z,99822.41
2023-05-13T16:52:35.708Z,99831.34
2023-05-13T16:55:03.030Z,99830.09
2023-05-13T16:57:30.133Z,99826.13
2023-05-13T16:59:57.102Z,99824.78
2023-05-13T17:02:24.448Z,99823.47
2023-05-13T17:04:51.500Z,99815.19
2023-05-13T17:07:19.400Z,99819.59
2023-05-13T17:09:46.465Z,99816.16
2023-05-13T17:12:13.493Z,99814.06
2023-05-13T17:14:40.538Z,99817.78
2023-05-13T17:17:07.548Z,99822.53
2023-05-13T17:19:34.828Z,99815.66
2023-05-13T17:22:01.770Z,99821.38
2023-05-13T17:24:31.631Z,99821.41
2023-05-13T17:26:58.539Z,99823.75
2023-05-13T17:29:25.756Z,99828.81
2023-05-13T17:31:52.929Z,99820.97
2023-05-13T17:34:20.229Z,99828.81
2023-05-13T17:36:49.356Z,99817.78
2023-05-13T17:39:17.108Z,99823.28
2023-05-13T17:41:44.058Z,99820.50
2023-05-13T17:44:11.079Z,99819.56
2023-05-13T17:46:38.098Z,99815.31
2023-05-13T17:49:05.748Z,99815.91
2023-05-13T17:51:32.855Z,99817.47
2023-05-13T17:53:59.977Z,99827.19
2023-05-13T17:56:26.989Z,99819.91
2023-05-13T17:58:53.916Z,99826.19
2023-05-13T18:01:21.747Z,99833.25
2023-05-13T18:03:48.870Z,99829.94
2023-05-13T18:06:16.086Z,99835.34
2023-05-13T18:08:43.244Z,99832.81
2023-05-13T18:11:10.294Z,99836.53
2023-05-13T18:13:37.296Z,99834.50
2023-05-13T18:16:05.978Z,99840.91
2023-05-13T18:18:36.942Z,99842.41
2023-05-13T18:21:06.900Z,99843.38
2023-05-13T18:23:34.906Z,99835.59
2023-05-13T18:26:02.274Z,99837.94
2023-05-13T18:28:31.746Z,99836.94
2023-05-13T18:30:58.819Z,99839.53
2023-05-13T18:33:29.800Z,99842.06
2023-05-13T18:35:57.268Z,99841.91
2023-05-13T18:38:24.201Z,99843.31
2023-05-13T18:40:51.177Z,99856.41
2023-05-13T18:43:18.153Z,99859.25
2023-05-13T18:45:45.320Z,99858.53
2023-05-13T18:48:12.368Z,99861.09
2023-05-13T18:50:42.395Z,99869.09
2023-05-13T18:53:09.577Z,99872.69
2023-05-13T18:55:39.956Z,99873.38
2023-05-13T18:58:07.131Z,99880.47
2023-05-13T19:00:34.091Z,99873.81
2023-05-13T19:03:01.337Z,99884.47
2023-05-13T19:05:28.580Z,99878.88
2023-05-13T19:07:57.213Z,99878.69
2023-05-13T19:10:24.587Z,99885.31
2023-05-13T19:12:52.031Z,99884.66
2023-05-13T19:15:21.164Z,99892.31
2023-05-13T19:17:50.412Z,99892.69
2023-05-13T19:20:17.638Z,99906.59
2023-05-13T19:22:44.778Z,99907.53
2023-05-13T19:25:13.033Z,99913.88
2023-05-13T19:27:40.041Z,99913.78
2023-05-13T19:30:08.351Z,99909.09
2023-05-13T19:32:36.214Z,99917.06
2023-05-13T19:35:03.694Z,99915.56
2023-05-13T19:37:31.537Z,99918.63
2023-05-13T19:39:58.559Z,99912.53
2023-05-13T19:42:25.610Z,99917.44
2023-05-13T19:44:52.603Z,99917.81
2023-05-13T19:47:21.412Z,99929.78
2023-05-13T19:49:48.379Z,99928.50
2023-05-13T19:52:15.496Z,99934.00
2023-05-13T19:54:42.433Z,99933.28
2023-05-13T19:57:10.744Z,99928.81
2023-05-13T19:59:39.408Z,99927.88
2023-05-13T20:02:06.568Z,99926.88
2023-05-13T20:04:33.916Z,99922.41
2023-05-13T20:07:01.099Z,99929.56
2023-05-13T20:09:28.093Z,99933.78
2023-05-13T20:11:58.309Z,99923.91
2023-05-13T20:14:40.874Z,99930.81
2023-05-13T20:17:08.390Z,99932.31
2023-05-13T20:19:35.332Z,99926.56
2023-05-13T20:22:02.606Z,99926.19
2023-05-13T20:24:29.564Z,99926.66
2023-05-13T20:26:56.528Z,99923.38
2023-05-13T20:29:23.454Z,99922.19
2023-05-13T20:31:50.481Z,99927.00
2023-05-13T20:34:17.570Z,99920.97
2023-05-13T20:36:44.660Z,99926.03
2023-05-13T20:39:11.572Z,99921.94
2023-05-13T20:41:38.504Z,99923.41
2023-05-13T20:44:06.439Z,99922.84
2023-05-13T20:46:33.481Z,99925.38
2023-05-13T20:49:00.537Z,99924.78
2023-05-13T20:51:27.473Z,99927.09
2023-05-13T20:53:54.472Z,99923.00
2023-05-13T20:56:22.038Z,99923.44
2023-05-13T20:58:49.720Z,99925.53
2023-05-13T21:01:16.684Z,99924.97
2023-05-13T21:03:43.703Z,99919.19
2023-05-13T21:06:11.340Z,99921.06
2023-05-13T21:08:39.992Z,99920.47
2023-05-13T21:11:07.280Z,99914.47
2023-05-13T21:13:34.216Z,99921.72
2023-05-13T21:16:04.220Z,99926.28
2023-05-13T21:18:31.616Z,99924.66
2023-05-13T21:20:58.646Z,99921.38
2023-05-13T21:23:25.729Z,99917.03
2023-05-13T21:25:52.692Z,99920.75
2023-05-13T21:28:19.652Z,99921.81
2023-05-13T21:30:46.682Z,99910.44
2023-05-13T21:33:13.714Z,99909.88
2023-05-13T21:35:40.695Z,99911.75
2023-05-13T21:38:12.022Z,99914.63
2023-05-13T21:40:39.464Z,99911.34
2023-05-13T21:43:06.472Z,99910.50
2023-05-13T21:45:33.420Z,99910.72
2023-05-13T21:48:00.438Z,99913.41
2023-05-13T21:50:27.614Z,99906.41
2023-05-13T21:52:54.991Z,99903.72
2023-05-13T21:55:22.106Z,99902.25
2023-05-13T21:57:49.357Z,99901.44
2023-05-13T22:00:21.325Z,99902.72
2023-05-13T22:02:50.556Z,99899.41
2023-05-13T22:05:17.745Z,99895.31
2023-05-13T22:07:44.720Z,99897.41
2023-05-13T22:10:11.930Z,99895.78
2023-05-13T22:12:38.848Z,99892.69
2023-05-13T22:15:06.703Z,99892.09
2023-05-13T22:17:33.732Z,99879.09
2023-05-13T22:20:00.859Z,99888.44
2023-05-13T22:22:27.900Z,99881.84
2023-05-13T22:24:54.881Z,99884.19
2023-05-13T22:27:21.849Z,99874.06
2023-05-13T22:29:48.825Z,99879.91
2023-05-13T22:32:15.825Z,99879.53
2023-05-13T22:34:42.877Z,99886.19
2023-05-13T22:37:09.997Z,99887.66
2023-05-13T22:39:36.959Z,99881.69
2023-05-13T22:42:04.084Z,99879.44
2023-05-13T22:44:31.046Z,99884.22
2023-05-13T22:46:58.007Z,99884.69
2023-05-13T22:49:27.608Z,99887.56
2023-05-13T22:51:54.835Z,99889.66
2023-05-13T22:54:21.755Z,99884.50
2023-05-13T22:56:48.683Z,99874.81
2023-05-13T22:59:15.758Z,99871.50
2023-05-13T23:01:42.783Z,99863.66
2023-05-13T23:04:10.005Z,99865.53
2023-05-13T23:06:37.151Z,99865.75
2023-05-13T23:09:06.121Z,99856.25
2023-05-13T23:11:35.664Z,99853.78
2023-05-13T23:14:02.733Z,99854.00
2023-05-13T23:16:29.761Z,99851.53
2023-05-13T23:18:56.792Z,99852.59
2023-05-13T23:21:23.760Z,99848.47
2023-05-13T23:23:51.961Z,99846.22
2023-05-13T23:26:18.967Z,99840.22
2023-05-13T23:28:46.049Z,99843.97
2023-05-13T23:31:13.041Z,99839.88
2023-05-13T23:33:39.984Z,99840.09
2023-05-13T23:36:07.067Z,99841.13
2023-05-13T23:38:34.569Z,99842.38
2023-05-13T23:41:01.552Z,99835.59
2023-05-13T23:43:28.470Z,99829.63
2023-05-13T23:45:55.479Z,99831.69
2023-05-13T23:48:22.482Z,99831.91
2023-05-13T23:50:49.408Z,99821.41
2023-05-13T23:53:16.386Z,99822.63
2023-05-13T23:55:43.404Z,99822.88
2023-05-13T23:58:10.431Z,99816.91
